createdAt,value
2023-01-21T00:00:52.945Z,96493.63
2023-01-21T00:03:26.300Z,96495.91
2023-01-21T00:05:59.331Z,96493.28
2023-01-21T00:08:32.338Z,96491.97
2023-01-21T00:11:09.612Z,96487.22
2023-01-21T00:13:45.556Z,96494.25
2023-01-21T00:16:18.397Z,96494.78
2023-01-21T00:18:51.238Z,96494.22
2023-01-21T00:21:24.158Z,96494.69
2023-01-21T00:23:57.063Z,96491.50
2023-01-21T00:26:29.979Z,96492.78
2023-01-21T00:29:04.532Z,96492.25
2023-01-21T00:31:37.638Z,96493.50
2023-01-21T00:34:11.706Z,96496.91
2023-01-21T00:36:44.749Z,96493.22
2023-01-21T00:39:17.658Z,96494.00
2023-01-21T00:41:50.545Z,96499.47
2023-01-21T00:44:24.959Z,96489.78
2023-01-21T00:46:57.864Z,96497.88
2023-01-21T00:49:30.775Z,96487.88
2023-01-21T00:52:03.704Z,96493.13
2023-01-21T00:54:36.601Z,96488.13
2023-01-21T00:57:09.582Z,96494.38
2023-01-21T00:59:44.579Z,96496.22
2023-01-21T01:02:17.596Z,96497.25
2023-01-21T01:04:50.759Z,96492.25
2023-01-21T01:07:23.630Z,96491.47
2023-01-21T01:09:56.490Z,96498.53
2023-01-21T01:12:29.757Z,96504.78
2023-01-21T01:15:04.209Z,96506.59
2023-01-21T01:17:37.228Z,96505.00
2023-01-21T01:20:11.343Z,96506.31
2023-01-21T01:22:44.228Z,96499.47
2023-01-21T01:25:17.152Z,96507.56
2023-01-21T01:27:50.036Z,96511.22
2023-01-21T01:30:24.477Z,96505.97
2023-01-21T01:32:57.593Z,96508.81
2023-01-21T01:35:30.498Z,96510.88
2023-01-21T01:38:07.947Z,96517.13
2023-01-21T01:40:41.682Z,96517.13
2023-01-21T01:43:17.945Z,96519.00
2023-01-21T01:45:52.718Z,96524.47
2023-01-21T01:48:30.940Z,96522.88
2023-01-21T01:51:07.608Z,96524.13
2023-01-21T01:53:45.929Z,96527.53
2023-01-21T01:56:18.985Z,96520.16
2023-01-21T01:58:53.728Z,96515.19
2023-01-21T02:01:28.495Z,96525.38
2023-01-21T02:04:04.380Z,96524.06
2023-01-21T02:06:38.834Z,96519.06
2023-01-21T02:09:12.235Z,96524.53
2023-01-21T02:11:45.331Z,96518.97
2023-01-21T02:14:18.871Z,96518.97
2023-01-21T02:17:06.436Z,96516.59
2023-01-21T02:20:22.464Z,96522.28
2023-01-21T02:23:03.598Z,96515.47
2023-01-21T02:26:11.401Z,96508.66
2023-01-21T02:29:15.921Z,96511.50
2023-01-21T02:32:29.096Z,96505.72
2023-01-21T02:35:11.611Z,96508.59
2023-01-21T02:37:51.005Z,96514.03
2023-01-21T02:40:31.968Z,96513.25
2023-01-21T02:43:10.737Z,96513.72
2023-01-21T02:45:50.712Z,96513.97
2023-01-21T02:48:30.036Z,96514.75
2023-01-21T02:51:06.464Z,96510.56
2023-01-21T02:53:39.643Z,96515.78
2023-01-21T02:56:15.690Z,96515.78
2023-01-21T02:58:52.411Z,96517.59
2023-01-21T03:01:42.142Z,96511.34
2023-01-21T03:04:44.637Z,96523.38
2023-01-21T03:07:27.719Z,96524.16
2023-01-21T03:10:07.313Z,96520.75
2023-01-21T03:12:51.022Z,96523.38
2023-01-21T03:15:45.513Z,96518.94
2023-01-21T03:18:24.337Z,96523.63
2023-01-21T03:21:03.056Z,96521.81
2023-01-21T03:23:40.761Z,96513.19
2023-01-21T03:26:18.663Z,96522.59
2023-01-21T03:28:54.003Z,96519.44
2023-01-21T03:31:29.730Z,96505.00
2023-01-21T03:34:07.812Z,96515.00
2023-01-21T03:36:48.782Z,96518.41
2023-01-21T03:39:31.832Z,96520.00
2023-01-21T03:42:05.138Z,96514.19
2023-01-21T03:44:38.567Z,96512.38
2023-01-21T03:47:20.802Z,96518.16
2023-01-21T03:50:01.607Z,96523.94
2023-01-21T03:52:34.738Z,96522.91
2023-01-21T03:55:11.419Z,96520.41
2023-01-21T03:57:44.356Z,96519.34
2023-01-21T04:00:18.637Z,96530.94
2023-01-21T04:02:51.957Z,96522.63
2023-01-21T04:05:24.880Z,96517.41
2023-01-21T04:07:57.769Z,96520.81
2023-01-21T04:10:32.027Z,96528.66
2023-01-21T04:13:04.860Z,96524.19
2023-01-21T04:15:37.713Z,96519.75
2023-01-21T04:18:10.592Z,96517.13
2023-01-21T04:20:43.465Z,96516.03
2023-01-21T04:23:16.297Z,96526.28
2023-01-21T04:25:51.054Z,96525.47
2023-01-21T04:28:24.012Z,96525.72
2023-01-21T04:30:57.010Z,96529.34
2023-01-21T04:33:30.712Z,96519.69
2023-01-21T04:36:03.579Z,96521.84
2023-01-21T04:38:36.535Z,96518.41
2023-01-21T04:41:11.185Z,96514.53
2023-01-21T04:43:44.317Z,96519.53
2023-01-21T04:46:17.848Z,96519.28
2023-01-21T04:48:50.780Z,96523.25
2023-01-21T04:51:23.880Z,96523.81
2023-01-21T04:53:56.727Z,96530.38
2023-01-21T04:56:30.997Z,96528.34
2023-01-21T04:59:03.925Z,96531.50
2023-01-21T05:01:36.952Z,96530.50
2023-01-21T05:04:09.863Z,96533.41
2023-01-21T05:06:42.879Z,96535.00
2023-01-21T05:09:15.828Z,96539.19
2023-01-21T05:11:50.075Z,96544.28
2023-01-21T05:14:23.028Z,96544.28
2023-01-21T05:16:55.981Z,96537.78
2023-01-21T05:19:29.037Z,96542.53
2023-01-21T05:22:02.017Z,96542.28
2023-01-21T05:24:34.881Z,96549.44
2023-01-21T05:27:09.904Z,96536.13
2023-01-21T05:29:42.978Z,96533.81
2023-01-21T05:32:15.911Z,96541.19
2023-01-21T05:34:48.848Z,96540.72
2023-01-21T05:37:21.842Z,96536.81
2023-01-21T05:39:54.683Z,96538.16
2023-01-21T05:42:29.083Z,96537.13
2023-01-21T05:45:02.457Z,96540.78
2023-01-21T05:47:35.536Z,96531.44
2023-01-21T05:50:09.689Z,96533.78
2023-01-21T05:52:42.592Z,96535.94
2023-01-21T05:55:16.183Z,96527.84
2023-01-21T05:57:51.391Z,96537.09
2023-01-21T06:00:24.410Z,96523.53
2023-01-21T06:02:57.290Z,96529.41
2023-01-21T06:05:30.632Z,96532.88
2023-01-21T06:08:03.899Z,96541.34
2023-01-21T06:10:36.949Z,96536.41
2023-01-21T06:13:13.399Z,96539.09
2023-01-21T06:15:46.419Z,96551.50
2023-01-21T06:18:19.451Z,96542.09
2023-01-21T06:20:52.389Z,96543.19
2023-01-21T06:23:25.241Z,96549.78
2023-01-21T06:26:00.769Z,96547.78
2023-01-21T06:28:35.147Z,96541.00
2023-01-21T06:31:08.086Z,96544.16
2023-01-21T06:33:41.172Z,96548.69
2023-01-21T06:36:14.025Z,96548.44
2023-01-21T06:38:46.943Z,96559.72
2023-01-21T06:41:21.342Z,96553.69
2023-01-21T06:43:55.662Z,96552.88
2023-01-21T06:46:28.621Z,96559.94
2023-01-21T06:49:01.790Z,96571.50
2023-01-21T06:51:34.633Z,96571.75
2023-01-21T06:54:07.633Z,96571.19
2023-01-21T06:56:41.273Z,96570.94
2023-01-21T06:59:15.580Z,96574.38
2023-01-21T07:01:48.676Z,96585.66
2023-01-21T07:04:21.655Z,96581.19
2023-01-21T07:06:54.731Z,96583.06
2023-01-21T07:09:27.659Z,96579.75
2023-01-21T07:12:00.511Z,96583.19
2023-01-21T07:14:34.766Z,96589.06
2023-01-21T07:17:07.681Z,96589.13
2023-01-21T07:19:40.780Z,96596.56
2023-01-21T07:22:13.612Z,96593.50
2023-01-21T07:24:46.634Z,96600.13
2023-01-21T07:27:19.535Z,96598.09
2023-01-21T07:29:53.936Z,96600.53
2023-01-21T07:32:26.828Z,96598.78
2023-01-21T07:34:59.708Z,96607.72
2023-01-21T07:37:32.580Z,96605.16
2023-01-21T07:40:06.737Z,96601.78
2023-01-21T07:42:39.617Z,96608.66
2023-01-21T07:45:14.252Z,96604.00
2023-01-21T07:47:47.287Z,96617.44
2023-01-21T07:50:20.345Z,96613.00
2023-01-21T07:52:54.436Z,96616.75
2023-01-21T07:55:27.661Z,96617.84
2023-01-21T07:58:01.011Z,96613.44
2023-01-21T08:00:35.248Z,96621.88
2023-01-21T08:03:08.148Z,96620.59
2023-01-21T08:05:41.015Z,96621.69
2023-01-21T08:08:13.933Z,96616.47
2023-01-21T08:10:52.913Z,96625.72
2023-01-21T08:13:25.935Z,96628.66
2023-01-21T08:16:00.216Z,96622.38
2023-01-21T08:18:33.318Z,96621.34
2023-01-21T08:21:06.585Z,96620.63
2023-01-21T08:23:39.545Z,96623.81
2023-01-21T08:26:12.424Z,96621.47
2023-01-21T08:28:45.278Z,96621.25
2023-01-21T08:31:19.626Z,96618.63
2023-01-21T08:33:52.496Z,96621.56
2023-01-21T08:36:25.950Z,96616.84
2023-01-21T08:39:01.962Z,96624.00
2023-01-21T08:41:35.090Z,96622.16
2023-01-21T08:44:08.434Z,96616.91
2023-01-21T08:46:42.723Z,96620.09
2023-01-21T08:49:15.560Z,96624.34
2023-01-21T08:51:48.512Z,96624.13
2023-01-21T08:54:21.420Z,96623.06
2023-01-21T08:56:54.490Z,96629.69
2023-01-21T08:59:30.160Z,96621.81
2023-01-21T09:02:04.646Z,96625.78
2023-01-21T09:04:37.565Z,96634.72
2023-01-21T09:07:10.514Z,96643.44
2023-01-21T09:09:43.412Z,96645.56
2023-01-21T09:12:16.299Z,96635.31
2023-01-21T09:14:49.128Z,96631.88
2023-01-21T09:17:23.543Z,96637.19
2023-01-21T09:19:56.389Z,96645.88
2023-01-21T09:22:29.310Z,96644.28
2023-01-21T09:25:10.179Z,96646.41
2023-01-21T09:27:43.069Z,96635.38
2023-01-21T09:30:16.871Z,96635.34
2023-01-21T09:32:51.377Z,96641.69
2023-01-21T09:35:24.249Z,96639.03
2023-01-21T09:37:57.125Z,96641.94
2023-01-21T09:40:30.015Z,96646.16
2023-01-21T09:43:12.800Z,96649.88
2023-01-21T09:45:47.856Z,96651.97
2023-01-21T09:48:30.651Z,96649.88
2023-01-21T09:51:09.435Z,96646.19
2023-01-21T09:53:48.768Z,96637.50
2023-01-21T09:56:29.261Z,96637.25
2023-01-21T09:59:09.113Z,96637.75
2023-01-21T10:01:43.797Z,96628.25
2023-01-21T10:04:35.124Z,96636.94
2023-01-21T10:07:14.407Z,96631.66
2023-01-21T10:10:01.616Z,96626.88
2023-01-21T10:12:58.534Z,96627.91
2023-01-21T10:15:56.058Z,96627.06
2023-01-21T10:18:32.456Z,96631.56
2023-01-21T10:21:14.476Z,96622.31
2023-01-21T10:23:50.791Z,96625.75
2023-01-21T10:26:25.101Z,96615.19
2023-01-21T10:28:57.967Z,96620.19
2023-01-21T10:31:36.512Z,96612.25
2023-01-21T10:34:15.136Z,96598.50
2023-01-21T10:37:00.745Z,96611.69
2023-01-21T10:39:42.757Z,96606.38
2023-01-21T10:42:28.334Z,96606.09
2023-01-21T10:45:08.439Z,96613.75
2023-01-21T10:47:48.844Z,96606.91
2023-01-21T10:50:39.565Z,96604.53
2023-01-21T10:53:22.160Z,96605.31
2023-01-21T10:56:13.456Z,96606.38
2023-01-21T10:58:50.024Z,96597.16
2023-01-21T11:01:26.813Z,96599.50
2023-01-21T11:04:05.010Z,96604.53
2023-01-21T11:06:38.340Z,96584.75
2023-01-21T11:09:15.945Z,96591.88
2023-01-21T11:11:48.845Z,96587.66
2023-01-21T11:14:21.920Z,96594.25
2023-01-21T11:16:55.481Z,96590.88
2023-01-21T11:19:30.609Z,96591.66
2023-01-21T11:22:05.587Z,96585.06
2023-01-21T11:24:46.440Z,96584.00
2023-01-21T11:27:21.827Z,96581.34
2023-01-21T11:29:54.732Z,96589.81
2023-01-21T11:32:29.654Z,96590.56
2023-01-21T11:35:04.899Z,96590.25
2023-01-21T11:37:39.093Z,96588.09
2023-01-21T11:40:23.132Z,96587.03
2023-01-21T11:42:58.251Z,96587.25
2023-01-21T11:45:33.294Z,96581.19
2023-01-21T11:48:20.829Z,96590.66
2023-01-21T11:51:07.593Z,96577.97
2023-01-21T11:53:41.231Z,96581.63
2023-01-21T11:56:17.137Z,96582.94
2023-01-21T11:58:50.023Z,96582.66
2023-01-21T12:01:23.823Z,96573.66
2023-01-21T12:04:01.030Z,96590.03
2023-01-21T12:06:36.959Z,96580.81
2023-01-21T12:09:19.409Z,96586.88
2023-01-21T12:12:18.034Z,96576.59
2023-01-21T12:14:55.197Z,96584.00
2023-01-21T12:17:42.747Z,96577.16
2023-01-21T12:20:35.981Z,96572.97
2023-01-21T12:23:26.290Z,96566.13
2023-01-21T12:26:02.428Z,96577.28
2023-01-21T12:28:55.045Z,96577.84
2023-01-21T12:31:33.022Z,96587.34
2023-01-21T12:34:11.631Z,96582.09
2023-01-21T12:36:47.871Z,96590.56
2023-01-21T12:39:25.526Z,96589.50
2023-01-21T12:42:07.679Z,96597.47
2023-01-21T12:44:47.569Z,96595.34
2023-01-21T12:47:25.860Z,96608.06
2023-01-21T12:50:14.471Z,96602.25
2023-01-21T12:52:58.450Z,96596.44
2023-01-21T12:55:41.621Z,96602.78
2023-01-21T12:58:17.091Z,96594.34
2023-01-21T13:00:54.384Z,96597.28
2023-01-21T13:03:34.135Z,96591.47
2023-01-21T13:06:11.973Z,96595.94
2023-01-21T13:08:55.877Z,96599.13
2023-01-21T13:11:31.949Z,96606.50
2023-01-21T13:14:29.510Z,96593.59
2023-01-21T13:17:08.800Z,96593.34
2023-01-21T13:19:42.007Z,96599.66
2023-01-21T13:22:28.240Z,96590.44
2023-01-21T13:25:12.893Z,96589.66
2023-01-21T13:27:52.656Z,96601.78
2023-01-21T13:30:31.604Z,96594.91
2023-01-21T13:33:21.971Z,96593.38
2023-01-21T13:36:07.419Z,96605.22
2023-01-21T13:38:48.063Z,96611.28
2023-01-21T13:41:37.028Z,96607.59
2023-01-21T13:44:38.694Z,96599.16
2023-01-21T13:47:27.016Z,96603.63
2023-01-21T13:50:25.748Z,96603.63
2023-01-21T13:53:23.649Z,96610.50
2023-01-21T13:56:08.443Z,96618.41
2023-01-21T13:58:47.579Z,96605.22
2023-01-21T14:01:26.838Z,96607.34
2023-01-21T14:04:07.015Z,96607.06
2023-01-21T14:06:49.500Z,96610.22
2023-01-21T14:09:25.738Z,96604.41
2023-01-21T14:12:02.923Z,96621.84
2023-01-21T14:14:56.944Z,96618.94
2023-01-21T14:17:47.243Z,96621.31
2023-01-21T14:20:53.880Z,96618.69
2023-01-21T14:23:42.747Z,96625.81
2023-01-21T14:26:26.559Z,96628.72
2023-01-21T14:29:11.249Z,96623.69
2023-01-21T14:31:48.387Z,96630.31
2023-01-21T14:34:27.381Z,96626.88
2023-01-21T14:37:08.451Z,96637.97
2023-01-21T14:40:02.131Z,96644.81
2023-01-21T14:42:43.583Z,96628.47
2023-01-21T14:45:19.404Z,96639.53
2023-01-21T14:47:54.389Z,96636.16
2023-01-21T14:50:54.068Z,96641.13
2023-01-21T14:53:28.364Z,96647.75
2023-01-21T14:56:16.059Z,96652.25
2023-01-21T14:58:52.614Z,96651.44
2023-01-21T15:01:32.560Z,96654.88
2023-01-21T15:04:09.413Z,96655.94
2023-01-21T15:06:43.697Z,96660.69
2023-01-21T15:09:23.156Z,96660.69
2023-01-21T15:12:01.771Z,96657.25
2023-01-21T15:14:37.014Z,96657.75
2023-01-21T15:17:47.305Z,96656.22
2023-01-21T15:20:48.077Z,96652.78
2023-01-21T15:23:39.157Z,96666.22
2023-01-21T15:26:32.905Z,96663.59
2023-01-21T15:29:34.756Z,96667.03
2023-01-21T15:32:30.000Z,96667.03
2023-01-21T15:35:12.676Z,96663.06
2023-01-21T15:37:47.313Z,96669.13
2023-01-21T15:40:21.773Z,96670.72
2023-01-21T15:43:01.760Z,96667.28
2023-01-21T15:45:48.089Z,96674.16
2023-01-21T15:48:42.768Z,96683.66
2023-01-21T15:51:29.660Z,96676.00
2023-01-21T15:54:16.627Z,96683.91
2023-01-21T15:57:01.880Z,96688.13
2023-01-21T15:59:54.236Z,96683.13
2023-01-21T16:02:32.168Z,96688.94
2023-01-21T16:05:21.236Z,96695.78
2023-01-21T16:08:09.029Z,96696.59
2023-01-21T16:10:53.253Z,96698.66
2023-01-21T16:13:38.537Z,96700.50
2023-01-21T16:16:17.556Z,96703.69
2023-01-21T16:18:59.271Z,96701.06
2023-01-21T16:21:35.151Z,96703.69
2023-01-21T16:24:13.545Z,96708.44
2023-01-21T16:26:46.749Z,96706.06
2023-01-21T16:29:19.654Z,96713.16
2023-01-21T16:31:59.347Z,96701.84
2023-01-21T16:34:43.019Z,96713.97
2023-01-21T16:37:19.382Z,96715.06
2023-01-21T16:39:56.198Z,96719.25
2023-01-21T16:42:33.883Z,96716.09
2023-01-21T16:45:10.740Z,96727.16
2023-01-21T16:47:43.685Z,96718.75
2023-01-21T16:50:23.709Z,96730.59
2023-01-21T16:52:58.543Z,96736.91
2023-01-21T16:55:31.916Z,96734.28
2023-01-21T16:58:19.983Z,96739.56
2023-01-21T17:01:01.595Z,96731.38
2023-01-21T17:03:34.767Z,96730.88
2023-01-21T17:06:15.010Z,96734.56
2023-01-21T17:08:53.526Z,96733.22
2023-01-21T17:11:26.672Z,96732.19
2023-01-21T17:14:01.603Z,96739.03
2023-01-21T17:16:37.321Z,96727.94
2023-01-21T17:19:22.675Z,96738.00
2023-01-21T17:22:01.416Z,96740.38
2023-01-21T17:24:39.449Z,96743.81
2023-01-21T17:27:17.515Z,96741.16
2023-01-21T17:29:50.577Z,96747.22
2023-01-21T17:32:28.776Z,96745.91
2023-01-21T17:35:13.597Z,96748.28
2023-01-21T17:37:54.264Z,96752.50
2023-01-21T17:40:32.231Z,96757.78
2023-01-21T17:43:19.999Z,96752.50
2023-01-21T17:45:56.660Z,96759.38
2023-01-21T17:48:33.360Z,96752.50
2023-01-21T17:51:08.540Z,96760.94
2023-01-21T17:53:51.918Z,96756.72
2023-01-21T17:56:42.489Z,96759.34
2023-01-21T17:59:28.717Z,96765.16
2023-01-21T18:02:02.259Z,96769.13
2023-01-21T18:04:35.263Z,96763.31
2023-01-21T18:07:16.487Z,96768.88
2023-01-21T18:09:51.532Z,96775.19
2023-01-21T18:12:24.378Z,96776.78
2023-01-21T18:14:58.863Z,96776.78
2023-01-21T18:17:31.813Z,96782.59
2023-01-21T18:20:05.401Z,96778.63
2023-01-21T18:22:38.374Z,96778.91
2023-01-21T18:25:15.764Z,96776.00
2023-01-21T18:27:54.615Z,96769.13
2023-01-21T18:30:29.124Z,96777.28
2023-01-21T18:33:02.432Z,96780.97
2023-01-21T18:35:35.389Z,96778.09
2023-01-21T18:38:12.351Z,96782.31
2023-01-21T18:40:47.155Z,96789.19
2023-01-21T18:43:20.040Z,96788.38
2023-01-21T18:45:54.493Z,96782.31
2023-01-21T18:48:30.482Z,96778.63
2023-01-21T18:51:03.433Z,96782.84
2023-01-21T18:53:36.342Z,96786.53
2023-01-21T18:56:15.540Z,96788.91
2023-01-21T18:58:48.418Z,96784.16
2023-01-21T19:01:23.898Z,96791.81
2023-01-21T19:03:57.262Z,96790.22
2023-01-21T19:06:30.178Z,96790.22
2023-01-21T19:09:03.000Z,96796.56
2023-01-21T19:11:37.551Z,96790.22
2023-01-21T19:14:10.383Z,96795.50
2023-01-21T19:16:44.802Z,96796.56
2023-01-21T19:19:19.053Z,96788.13
2023-01-21T19:21:53.414Z,96788.66
2023-01-21T19:24:26.166Z,96791.28
2023-01-21T19:27:01.473Z,96793.13
2023-01-21T19:29:34.275Z,96794.19
2023-01-21T19:32:08.262Z,96792.63
2023-01-21T19:34:41.881Z,96802.09
2023-01-21T19:37:17.179Z,96798.97
2023-01-21T19:39:50.029Z,96803.94
2023-01-21T19:42:26.619Z,96807.69
2023-01-21T19:44:59.551Z,96806.59
2023-01-21T19:47:32.722Z,96806.59
2023-01-21T19:50:06.485Z,96807.69
2023-01-21T19:52:39.451Z,96810.31
2023-01-21T19:55:15.164Z,96803.19
2023-01-21T19:57:56.627Z,96807.94
2023-01-21T20:00:31.407Z,96806.34
2023-01-21T20:03:04.717Z,96812.41
2023-01-21T20:05:37.881Z,96809.25
2023-01-21T20:08:14.302Z,96812.41
2023-01-21T20:10:47.135Z,96812.69
2023-01-21T20:13:21.874Z,96817.16
2023-01-21T20:15:54.800Z,96820.06
2023-01-21T20:18:29.722Z,96813.19
2023-01-21T20:21:02.554Z,96809.25
2023-01-21T20:23:36.445Z,96819.53
2023-01-21T20:26:14.434Z,96816.13
2023-01-21T20:28:51.473Z,96822.47
2023-01-21T20:31:24.610Z,96817.44
2023-01-21T20:33:57.550Z,96826.94
2023-01-21T20:36:30.407Z,96831.69
2023-01-21T20:39:03.342Z,96820.34
2023-01-21T20:41:36.162Z,96818.75
2023-01-21T20:44:10.490Z,96825.63
2023-01-21T20:46:45.473Z,96824.56
2023-01-21T20:49:18.334Z,96821.91
2023-01-21T20:51:51.300Z,96823.50
2023-01-21T20:54:24.877Z,96824.03
2023-01-21T20:56:57.760Z,96820.31
2023-01-21T20:59:32.078Z,96827.44
2023-01-21T21:02:04.976Z,96833.53
2023-01-21T21:04:38.241Z,96824.81
2023-01-21T21:07:16.541Z,96820.84
2023-01-21T21:09:49.471Z,96830.63
2023-01-21T21:12:22.980Z,96833.53
2023-01-21T21:14:57.323Z,96833.81
2023-01-21T21:17:30.376Z,96828.53
2023-01-21T21:20:03.603Z,96826.66
2023-01-21T21:22:36.736Z,96826.94
2023-01-21T21:25:14.745Z,96831.16
2023-01-21T21:27:48.441Z,96820.59
2023-01-21T21:30:24.512Z,96818.75
2023-01-21T21:32:59.466Z,96810.31
2023-01-21T21:35:34.164Z,96811.88
2023-01-21T21:38:08.775Z,96817.97
2023-01-21T21:40:45.601Z,96820.34
2023-01-21T21:43:35.634Z,96820.34
2023-01-21T21:46:30.692Z,96821.41
2023-01-21T21:49:03.734Z,96818.50
2023-01-21T21:51:38.087Z,96822.19
2023-01-21T21:54:11.562Z,96821.41
2023-01-21T21:56:44.751Z,96828.53
2023-01-21T21:59:17.653Z,96829.56
2023-01-21T22:01:51.946Z,96834.59
2023-01-21T22:04:24.943Z,96834.59
2023-01-21T22:06:58.053Z,96833.25
2023-01-21T22:09:31.003Z,96834.31
2023-01-21T22:12:04.226Z,96834.84
2023-01-21T22:14:37.086Z,96831.16
2023-01-21T22:17:11.727Z,96828.78
2023-01-21T22:19:45.574Z,96827.19
2023-01-21T22:22:18.503Z,96828.53
2023-01-21T22:24:54.319Z,96819.81
2023-01-21T22:27:27.555Z,96821.13
2023-01-21T22:30:01.539Z,96808.22
2023-01-21T22:32:35.981Z,96817.69
2023-01-21T22:35:09.487Z,96815.59
2023-01-21T22:37:42.576Z,96819.81
2023-01-21T22:40:16.300Z,96812.94
2023-01-21T22:42:49.249Z,96807.66
2023-01-21T22:45:22.447Z,96814.53
2023-01-21T22:47:56.996Z,96809.25
2023-01-21T22:50:30.534Z,96807.66
2023-01-21T22:53:03.476Z,96806.63
2023-01-21T22:55:36.496Z,96805.56
2023-01-21T22:58:09.497Z,96803.97
2023-01-21T23:00:43.048Z,96798.69
2023-01-21T23:03:17.661Z,96801.84
2023-01-21T23:05:51.030Z,96805.03
2023-01-21T23:08:23.965Z,96801.31
2023-01-21T23:11:01.690Z,96790.25
2023-01-21T23:13:35.585Z,96794.72
2023-01-21T23:16:10.418Z,96793.38
2023-01-21T23:18:44.854Z,96790.50
2023-01-21T23:21:20.695Z,96789.44
2023-01-21T23:23:53.893Z,96790.50
2023-01-21T23:26:26.917Z,96788.38
2023-01-21T23:29:00.101Z,96794.72
2023-01-21T23:31:33.237Z,96789.69
2023-01-21T23:34:07.581Z,96792.34
2023-01-21T23:36:40.548Z,96791.03
2023-01-21T23:39:15.657Z,96791.03
2023-01-21T23:41:48.533Z,96787.06
2023-01-21T23:44:21.405Z,96789.72
2023-01-21T23:46:54.295Z,96783.91
2023-01-21T23:49:28.761Z,96783.91
2023-01-21T23:52:01.603Z,96777.06
2023-01-21T23:54:37.501Z,96780.22
2023-01-21T23:57:11.356Z,96770.19
2023-01-21T23:59:45.145Z,96764.38
